Time;durP1;ratioP1;P1;durP2;ratioP2;P2;SDS_P1;SDS_P2;PMS_P1;PMS_P2;Temp;Humidity;BMP_temperature;BMP_pressure;BME280_temperature;BME280_humidity;BME280_pressure;Samples;Min_cycle;Max_cycle;Signal;HPM_P1;HPM_P2
2022/08/16 00:00:26;;;;;;;;;27.50;27.00;;;;;19.68;67.82;99536.31;4980038;28;45493;-70
2022/08/16 00:02:53;;;;;;;;;24.25;20.25;;;;;19.61;68.42;99532.03;4980122;28;45547;-75
2022/08/16 00:05:20;;;;;;;;;29.75;27.75;;;;;19.52;67.48;99532.28;4962244;28;47638;-71
2022/08/16 00:07:46;;;;;;;;;30.00;28.75;;;;;19.48;68.48;99535.91;4979611;28;45475;-71
2022/08/16 00:10:15;;;;;;;;;27.75;25.75;;;;;19.35;69.15;99529.13;4978545;28;45439;-71
2022/08/16 00:12:41;;;;;;;;;28.00;26.00;;;;;19.28;68.44;99515.16;4980142;28;45374;-73
2022/08/16 00:15:12;;;;;;;;;29.50;27.75;;;;;19.24;68.56;99492.31;4979863;28;45430;-71
2022/08/16 00:17:38;;;;;;;;;26.50;23.75;;;;;19.37;69.26;99512.28;4979614;28;45461;-72
2022/08/16 00:20:08;;;;;;;;;44.00;38.50;;;;;19.38;69.48;99523.78;4962325;28;45647;-71
2022/08/16 00:22:35;;;;;;;;;35.25;33.50;;;;;19.35;69.28;99506.16;4962462;28;45499;-71
2022/08/16 00:25:01;;;;;;;;;31.25;28.75;;;;;19.38;69.10;99489.34;4979339;28;46082;-70
2022/08/16 00:27:27;;;;;;;;;26.00;25.75;;;;;19.45;68.95;99504.16;4979484;28;45474;-72
2022/08/16 00:29:53;;;;;;;;;27.75;26.75;;;;;19.47;68.88;99505.88;4979461;28;45422;-71
2022/08/16 00:32:19;;;;;;;;;26.75;24.50;;;;;19.47;68.69;99499.72;4979752;28;45348;-73
2022/08/16 00:34:45;;;;;;;;;24.75;24.25;;;;;19.56;68.39;99501.28;4979226;28;45312;-72
2022/08/16 00:37:12;;;;;;;;;43.50;38.00;;;;;19.55;68.51;99491.59;4979242;28;45388;-72
2022/08/16 00:39:38;;;;;;;;;32.00;29.00;;;;;19.50;69.15;99496.09;4979688;28;45498;-70
2022/08/16 00:42:04;;;;;;;;;25.25;24.50;;;;;19.41;68.54;99483.97;4978507;28;45463;-72
2022/08/16 00:44:30;;;;;;;;;26.75;26.00;;;;;19.45;68.64;99490.94;4994369;28;46859;-71
2022/08/16 00:47:04;;;;;;;;;31.75;28.25;;;;;19.46;68.73;99482.09;4961810;28;45322;-71
2022/08/16 00:49:29;;;;;;;;;27.00;25.00;;;;;19.52;68.80;99487.25;4979372;28;45242;-74
2022/08/16 00:51:55;;;;;;;;;23.00;22.00;;;;;19.63;68.64;99497.56;4979436;28;45289;-71
2022/08/16 00:54:23;;;;;;;;;24.75;24.00;;;;;19.71;68.24;99497.38;4979225;28;46335;-71
2022/08/16 00:56:51;;;;;;;;;27.00;26.75;;;;;19.62;68.54;99479.94;4979203;28;45183;-71
2022/08/16 00:59:19;;;;;;;;;25.75;23.75;;;;;19.58;68.26;99471.19;4979051;28;45459;-72
2022/08/16 01:01:45;;;;;;;;;26.25;25.75;;;;;19.61;68.57;99471.09;4979248;28;46304;-71
2022/08/16 01:04:16;;;;;;;;;26.25;25.50;;;;;19.78;68.27;99493.72;4978724;28;45483;-73
2022/08/16 01:06:42;;;;;;;;;25.50;25.50;;;;;19.70;68.32;99471.81;4978042;28;45548;-72
2022/08/16 01:09:07;;;;;;;;;26.50;26.25;;;;;19.74;68.33;99479.69;4979223;28;45310;-71
2022/08/16 01:11:36;;;;;;;;;28.25;27.50;;;;;19.80;68.47;99478.66;4979102;28;45373;-71
2022/08/16 01:14:10;;;;;;;;;30.75;28.25;;;;;19.81;68.45;99491.84;4961137;28;45521;-74
2022/08/16 01:16:37;;;;;;;;;29.00;27.75;;;;;19.75;68.07;99477.88;4978825;28;45304;-71
2022/08/16 01:19:15;;;;;;;;;27.50;25.25;;;;;19.85;67.98;99492.66;4978821;28;45441;-71
2022/08/16 01:21:53;;;;;;;;;28.75;25.50;;;;;19.88;68.21;99491.72;4979278;28;45907;-71
2022/08/16 01:24:34;;;;;;;;;25.50;24.00;;;;;19.88;67.99;99487.28;4978608;28;46012;-71
2022/08/16 01:27:10;;;;;;;;;27.00;26.25;;;;;19.81;68.02;99470.66;4978534;28;45190;-71
2022/08/16 01:29:43;;;;;;;;;26.50;25.25;;;;;19.90;68.06;99482.81;4978755;28;45515;-71
2022/08/16 01:32:08;;;;;;;;;28.50;26.75;;;;;19.75;68.20;99459.34;4978903;28;45318;-70
2022/08/16 01:34:34;;;;;;;;;26.50;24.25;;;;;19.76;68.82;99469.03;4977877;28;45995;-72
2022/08/16 01:37:05;;;;;;;;;27.50;25.75;;;;;19.82;68.43;99477.69;4978420;28;45368;-74
2022/08/16 01:39:32;;;;;;;;;28.50;27.50;;;;;19.81;68.22;99473.28;4978558;28;45401;-71
2022/08/16 01:41:58;;;;;;;;;29.00;24.50;;;;;19.90;68.36;99484.59;4978495;28;45191;-73
2022/08/16 01:44:23;;;;;;;;;26.00;25.00;;;;;19.81;68.18;99465.34;4978323;28;45500;-74
2022/08/16 01:46:50;;;;;;;;;25.50;22.50;;;;;19.83;68.34;99470.63;4978323;28;45282;-73
2022/08/16 01:49:22;;;;;;;;;26.75;24.50;;;;;19.85;68.41;99468.78;4977189;28;45511;-74
2022/08/16 01:51:53;;;;;;;;;31.25;28.50;;;;;19.83;69.27;99475.91;4978450;28;45415;-72
2022/08/16 01:54:19;;;;;;;;;26.00;24.00;;;;;19.60;69.02;99453.47;4977996;28;45545;-74
2022/08/16 01:56:45;;;;;;;;;30.25;26.25;;;;;19.56;68.74;99450.97;4977866;28;45480;-72
2022/08/16 01:59:13;;;;;;;;;28.75;28.00;;;;;19.64;69.42;99464.88;4978685;28;45305;-72
2022/08/16 02:01:39;;;;;;;;;28.50;26.75;;;;;19.53;69.44;99453.66;4978589;28;45214;-72
2022/08/16 02:04:04;;;;;;;;;25.00;24.50;;;;;19.63;69.72;99460.47;4977951;28;45289;-72
2022/08/16 02:06:30;;;;;;;;;25.25;24.75;;;;;19.59;68.83;99448.22;4977989;28;45215;-71
2022/08/16 02:08:56;;;;;;;;;28.50;24.25;;;;;19.65;69.37;99456.88;4978200;28;45514;-70
2022/08/16 02:11:23;;;;;;;;;25.25;24.50;;;;;19.68;69.19;99458.59;4978322;28;45309;-71
2022/08/16 02:13:49;;;;;;;;;25.25;25.25;;;;;19.59;69.51;99449.09;4977991;28;45435;-72
2022/08/16 02:16:15;;;;;;;;;24.25;23.25;;;;;19.50;69.24;99432.53;4977793;28;45460;-71
2022/08/16 02:18:41;;;;;;;;;32.00;29.25;;;;;19.71;69.50;99460.28;4978091;28;45544;-72
2022/08/16 02:21:08;;;;;;;;;26.75;25.50;;;;;19.69;69.21;99470.94;4960318;28;45639;-71
2022/08/16 02:23:36;;;;;;;;;28.00;25.25;;;;;19.78;68.97;99477.81;4977763;28;45483;-71
2022/08/16 02:26:04;;;;;;;;;24.75;23.50;;;;;19.81;69.03;99477.72;4960094;28;45567;-73
2022/08/16 02:28:29;;;;;;;;;27.75;25.50;;;;;19.75;69.60;99460.19;4977898;28;45756;-73
2022/08/16 02:30:58;;;;;;;;;28.50;26.75;;;;;19.79;69.57;99468.94;4977957;28;45310;-72
2022/08/16 02:33:27;;;;;;;;;26.25;24.50;;;;;19.68;69.31;99440.91;4977594;28;45491;-75
2022/08/16 02:35:53;;;;;;;;;27.75;26.25;;;;;19.72;69.95;99448.84;4992568;28;46076;-73
2022/08/16 02:38:18;;;;;;;;;24.75;24.75;;;;;19.77;70.11;99449.56;4977705;28;45519;-78
2022/08/16 02:40:44;;;;;;;;;21.25;19.50;;;;;19.80;69.67;99450.38;4978253;28;45482;-77
2022/08/16 02:43:10;;;;;;;;;24.75;23.75;;;;;19.77;69.76;99437.19;4977477;28;46509;-78
2022/08/16 02:45:35;;;;;;;;;26.00;24.25;;;;;19.85;69.50;99435.22;4977539;28;45206;-76
2022/08/16 02:48:01;;;;;;;;;24.75;23.00;;;;;19.81;69.85;99424.72;4977484;28;45280;-76
2022/08/16 02:50:27;;;;;;;;;25.00;24.00;;;;;19.87;69.71;99427.22;4977537;28;45303;-79
2022/08/16 02:52:53;;;;;;;;;26.00;25.50;;;;;19.75;69.93;99407.22;4977465;28;45528;-73
2022/08/16 02:55:20;;;;;;;;;25.75;24.00;;;;;19.80;70.30;99413.28;4977268;28;45532;-75
2022/08/16 02:57:46;;;;;;;;;24.25;22.25;;;;;19.70;70.34;99406.44;4977419;28;45254;-75
2022/08/16 03:00:15;;;;;;;;;25.67;23.67;;;;;19.79;70.23;99415.97;4960259;28;45529;-72
2022/08/16 03:02:43;;;;;;;;;23.25;21.50;;;;;19.79;70.57;99408.88;4959514;28;48009;-71
2022/08/16 03:05:11;;;;;;;;;27.50;24.25;;;;;19.76;69.71;99402.81;4959708;28;45412;-72
2022/08/16 03:07:36;;;;;;;;;31.50;29.50;;;;;19.62;70.52;99393.38;4977431;28;45511;-75
2022/08/16 03:10:05;;;;;;;;;27.75;26.75;;;;;19.47;71.06;99375.22;4977727;28;45350;-74
2022/08/16 03:12:30;;;;;;;;;29.50;28.50;;;;;19.46;70.69;99373.50;4977288;28;46539;-73
2022/08/16 03:14:56;;;;;;;;;26.75;24.75;;;;;19.37;70.95;99358.69;4977049;28;45391;-71
2022/08/16 03:17:21;;;;;;;;;27.25;27.25;;;;;19.43;71.66;99370.91;4977151;28;45301;-72
2022/08/16 03:19:47;;;;;;;;;24.50;23.75;;;;;19.34;70.95;99349.94;4977481;28;45524;-75
2022/08/16 03:22:13;;;;;;;;;24.50;24.00;;;;;19.35;70.96;99341.97;4977289;28;46816;-70
2022/08/16 03:24:38;;;;;;;;;27.75;25.00;;;;;19.27;71.20;99328.91;4977245;28;45357;-72
2022/08/16 03:27:04;;;;;;;;;27.00;26.75;;;;;19.20;71.96;99327.34;4977190;28;45239;-71
2022/08/16 03:29:31;;;;;;;;;28.25;26.75;;;;;19.34;71.47;99349.94;4977214;28;45615;-73
2022/08/16 03:32:00;;;;;;;;;28.25;26.00;;;;;19.40;71.51;99353.34;4979760;28;45667;-76
2022/08/16 03:34:27;;;;;;;;;25.75;23.75;;;;;19.31;71.01;99328.84;4962671;28;45558;-71
2022/08/16 03:36:53;;;;;;;;;29.50;27.75;;;;;19.34;71.07;99327.00;4962753;28;45269;-71
2022/08/16 03:39:19;;;;;;;;;29.25;28.00;;;;;19.35;71.19;99317.28;4980616;28;45234;-71
2022/08/16 03:41:45;;;;;;;;;29.00;27.00;;;;;19.38;71.25;99319.88;4980618;28;45273;-76
2022/08/16 03:44:10;;;;;;;;;24.75;23.00;;;;;19.31;71.28;99305.88;4980295;28;45525;-72
2022/08/16 03:46:36;;;;;;;;;30.00;27.50;;;;;19.44;71.89;99320.56;4980280;28;45444;-75
2022/08/16 03:49:03;;;;;;;;;28.25;27.25;;;;;19.39;71.32;99305.69;4995668;28;45340;-76
2022/08/16 03:51:31;;;;;;;;;28.25;27.50;;;;;19.44;71.34;99301.16;4980189;28;45458;-76
2022/08/16 03:53:57;;;;;;;;;23.75;20.50;;;;;19.45;71.27;99302.88;4995160;28;45289;-74
2022/08/16 03:56:25;;;;;;;;;25.00;24.75;;;;;19.43;71.10;99307.34;4995130;28;47138;-71
2022/08/16 03:58:51;;;;;;;;;27.25;25.25;;;;;19.49;71.05;99309.84;4980186;28;45460;-71
2022/08/16 04:01:18;;;;;;;;;24.50;23.50;;;;;19.41;71.31;99303.88;4979911;28;46243;-73
2022/08/16 04:03:44;;;;;;;;;34.00;27.75;;;;;19.35;71.19;99311.97;4962264;28;45571;-72
2022/08/16 04:06:09;;;;;;;;;29.50;28.25;;;;;19.27;71.76;99305.09;4980070;28;45352;-74
2022/08/16 04:08:35;;;;;;;;;28.75;26.75;;;;;19.30;71.25;99305.91;4995187;28;45542;-73
2022/08/16 04:11:00;;;;;;;;;30.50;28.00;;;;;19.27;72.16;99289.19;4980001;28;45630;-71
2022/08/16 04:13:27;;;;;;;;;29.50;26.50;;;;;19.27;71.77;99278.63;4979825;28;45434;-71
2022/08/16 04:15:52;;;;;;;;;28.75;26.75;;;;;19.30;71.22;99276.78;4979723;28;45512;-71
2022/08/16 04:18:18;;;;;;;;;24.50;24.00;;;;;19.39;71.73;99276.56;4995376;28;45255;-71
2022/08/16 04:20:43;;;;;;;;;28.50;25.75;;;;;19.25;71.34;99243.38;4979526;28;46571;-70
2022/08/16 04:23:09;;;;;;;;;25.75;24.75;;;;;19.37;71.06;99250.13;4979633;28;45261;-73
2022/08/16 04:25:35;;;;;;;;;31.00;28.25;;;;;19.37;71.67;99254.56;4962202;28;45240;-74
2022/08/16 04:28:04;;;;;;;;;32.25;27.50;;;;;19.46;70.98;99262.25;4962221;28;45504;-74
2022/08/16 04:30:30;;;;;;;;;30.00;27.50;;;;;19.41;71.37;99253.56;4978954;28;46757;-73
2022/08/16 04:32:56;;;;;;;;;29.00;26.25;;;;;19.47;71.34;99261.34;4979135;28;45463;-72
2022/08/16 04:35:22;;;;;;;;;28.50;25.50;;;;;19.49;71.05;99262.16;4978492;28;45516;-72
2022/08/16 04:37:49;;;;;;;;;29.75;27.75;;;;;19.54;71.00;99264.72;4979848;28;45431;-73
2022/08/16 04:40:17;;;;;;;;;25.00;24.75;;;;;19.52;71.29;99267.38;4979280;28;46302;-74
2022/08/16 04:42:44;;;;;;;;;25.75;24.00;;;;;19.51;71.14;99259.47;4979213;28;45430;-75
2022/08/16 04:45:12;;;;;;;;;26.00;25.00;;;;;19.54;70.97;99254.13;4994408;28;45248;-75
2022/08/16 04:47:39;;;;;;;;;27.50;24.25;;;;;19.42;70.81;99236.78;4979582;28;45381;-78
2022/08/16 04:50:19;;;;;;;;;27.50;26.00;;;;;19.51;70.96;99247.09;4961512;28;46538;-74
2022/08/16 04:52:46;;;;;;;;;25.50;23.50;;;;;19.48;71.24;99244.56;4979174;28;45383;-75
2022/08/16 04:55:17;;;;;;;;;29.00;27.00;;;;;19.44;71.90;99237.59;4961677;28;45476;-78
2022/08/16 04:57:45;;;;;;;;;26.50;26.25;;;;;19.46;71.42;99254.31;4979391;28;45259;-77
2022/08/16 05:00:18;;;;;;;;;28.00;27.00;;;;;19.37;71.15;99236.88;4979056;28;45944;-76
2022/08/16 05:02:44;;;;;;;;;29.00;28.75;;;;;19.47;71.38;99250.75;4961306;28;45460;-79
2022/08/16 05:05:11;;;;;;;;;29.50;25.25;;;;;19.32;70.86;99214.97;4978954;28;45481;-78
2022/08/16 05:07:38;;;;;;;;;28.25;25.50;;;;;19.46;70.97;99235.78;4961690;28;45585;-76
2022/08/16 05:10:06;;;;;;;;;28.75;26.75;;;;;19.42;71.42;99240.28;4978840;28;45960;-76
2022/08/16 05:12:32;;;;;;;;;27.50;26.00;;;;;19.38;71.59;99254.53;4978874;28;45499;-78
2022/08/16 05:14:57;;;;;;;;;27.50;27.25;;;;;19.26;71.63;99228.38;4978912;28;45508;-75
2022/08/16 05:17:23;;;;;;;;;24.25;23.50;;;;;19.16;71.81;99219.81;4979479;28;45318;-75
2022/08/16 05:19:49;;;;;;;;;30.25;25.50;;;;;19.21;71.99;99230.25;4978723;28;45581;-79
2022/08/16 05:22:15;;;;;;;;;23.25;22.00;;;;;19.17;71.63;99218.88;4977464;28;45333;-74
2022/08/16 05:24:40;;;;;;;;;28.00;26.25;;;;;19.15;72.12;99227.78;4978883;28;45354;-77
2022/08/16 05:27:06;;;;;;;;;27.75;26.00;;;;;19.14;72.48;99242.81;4978770;28;45266;-75
2022/08/16 05:29:32;;;;;;;;;28.75;27.00;;;;;19.09;72.17;99236.75;4978531;28;45448;-71
2022/08/16 05:31:58;;;;;;;;;30.00;25.00;;;;;19.07;72.23;99242.06;4978401;28;45337;-72
2022/08/16 05:34:23;;;;;;;;;30.25;28.75;;;;;19.13;72.40;99262.22;4978900;28;45412;-71
2022/08/16 05:36:50;;;;;;;;;31.50;30.00;;;;;19.24;71.73;99289.31;4978459;28;45563;-73
2022/08/16 05:39:15;;;;;;;;;24.50;23.75;;;;;19.24;71.95;99284.00;4960870;28;47537;-72
2022/08/16 05:41:41;;;;;;;;;27.75;25.00;;;;;19.16;71.80;99264.81;4960965;28;45411;-73
2022/08/16 05:44:06;;;;;;;;;27.50;25.25;;;;;19.15;72.30;99268.34;4961007;28;45294;-72
2022/08/16 05:46:32;;;;;;;;;28.00;25.00;;;;;19.24;72.15;99272.56;4978745;28;45397;-73
2022/08/16 05:48:59;;;;;;;;;29.00;28.00;;;;;19.25;72.10;99268.97;4978236;28;46198;-75
2022/08/16 05:51:25;;;;;;;;;25.25;24.50;;;;;19.20;71.69;99258.53;4978415;28;45626;-76
2022/08/16 05:53:50;;;;;;;;;27.50;23.25;;;;;19.26;71.63;99274.25;4977644;28;45665;-73
2022/08/16 05:56:16;;;;;;;;;29.25;25.50;;;;;19.19;71.80;99270.00;4960867;28;45572;-71
2022/08/16 05:58:41;;;;;;;;;30.75;27.75;;;;;19.27;71.44;99277.75;4978326;28;46617;-78
2022/08/16 06:01:07;;;;;;;;;26.25;25.25;;;;;19.36;71.49;99290.75;4978401;28;45308;-73
2022/08/16 06:03:33;;;;;;;;;29.50;27.75;;;;;19.26;71.26;99263.66;4978382;28;45260;-73
2022/08/16 06:05:59;;;;;;;;;27.75;25.50;;;;;19.38;71.05;99272.19;4960782;28;45451;-73
2022/08/16 06:08:25;;;;;;;;;24.75;24.75;;;;;19.44;70.96;99279.97;4978335;28;45255;-74
2022/08/16 06:10:50;;;;;;;;;29.25;28.25;;;;;19.28;72.10;99290.09;4960277;28;45360;-74
2022/08/16 06:13:16;;;;;;;;;24.25;24.00;;;;;19.14;72.12;99287.81;4978190;28;45297;-74
2022/08/16 06:15:41;;;;;;;;;27.00;26.00;;;;;19.21;72.02;99310.53;4978197;28;45448;-73
2022/08/16 06:18:07;;;;;;;;;30.50;27.25;;;;;19.29;71.74;99315.66;4977705;28;45532;-72
2022/08/16 06:20:33;;;;;;;;;28.50;26.50;;;;;19.35;71.73;99323.44;4977693;28;45557;-74
2022/08/16 06:22:58;;;;;;;;;28.00;26.00;;;;;19.28;71.68;99321.88;4977987;28;45373;-72
2022/08/16 06:25:26;;;;;;;;;24.33;23.33;;;;;19.46;71.25;99344.38;4978169;28;45666;-75
2022/08/16 06:27:52;;;;;;;;;23.25;22.75;;;;;19.45;71.31;99345.25;4960040;28;46374;-73
2022/08/16 06:30:18;;;;;;;;;26.75;24.00;;;;;19.49;71.14;99346.91;4977581;28;45464;-73
2022/08/16 06:32:45;;;;;;;;;26.50;24.00;;;;;19.44;71.19;99349.69;4977867;28;45469;-74
2022/08/16 06:35:12;;;;;;;;;27.00;25.75;;;;;19.44;71.08;99355.00;4992888;28;45365;-75
2022/08/16 06:37:39;;;;;;;;;26.25;24.50;;;;;19.56;70.57;99374.13;4959621;28;47259;-74
2022/08/16 06:40:06;;;;;;;;;26.00;23.50;;;;;19.49;70.76;99365.47;4977473;28;45558;-77
2022/08/16 06:42:32;;;;;;;;;28.00;26.00;;;;;19.60;70.40;99370.50;4977522;28;45499;-76
2022/08/16 06:44:57;;;;;;;;;28.25;24.00;;;;;19.68;70.41;99379.97;4978085;28;45455;-74
2022/08/16 06:47:23;;;;;;;;;30.75;28.00;;;;;19.70;70.24;99379.09;4977317;28;45412;-73
2022/08/16 06:49:49;;;;;;;;;30.25;26.00;;;;;19.72;69.67;99369.34;4977441;28;45411;-74
2022/08/16 06:52:15;;;;;;;;;24.50;23.50;;;;;19.76;69.90;99386.91;4977838;28;45819;-75
2022/08/16 06:54:41;;;;;;;;;24.50;23.25;;;;;19.80;70.05;99399.16;4977483;28;45512;-75
2022/08/16 06:57:09;;;;;;;;;21.50;21.25;;;;;19.77;70.09;99389.50;4992276;28;46919;-77
2022/08/16 06:59:36;;;;;;;;;25.00;25.00;;;;;19.90;69.70;99399.78;4977344;28;45415;-74
2022/08/16 07:02:02;;;;;;;;;27.50;24.00;;;;;20.03;69.27;99396.78;4959780;28;45575;-74
2022/08/16 07:04:27;;;;;;;;;29.50;27.00;;;;;20.20;68.75;99382.19;4977624;28;45346;-73
2022/08/16 07:06:53;;;;;;;;;25.25;24.00;;;;;20.27;68.74;99378.41;4995019;28;45486;-73
2022/08/16 07:09:20;;;;;;;;;27.25;27.25;;;;;20.41;68.20;99393.94;4980649;28;45435;-75
2022/08/16 07:11:45;;;;;;;;;30.25;26.25;;;;;20.38;67.32;99380.78;4980733;28;45275;-75
2022/08/16 07:14:11;;;;;;;;;30.00;27.50;;;;;20.58;68.11;99404.94;4981049;28;45976;-74
2022/08/16 07:16:37;;;;;;;;;26.25;25.50;;;;;20.64;67.69;99402.13;4980340;28;46329;-71
2022/08/16 07:19:02;;;;;;;;;26.25;24.25;;;;;20.69;67.72;99386.09;4980030;28;45492;-73
2022/08/16 07:21:28;;;;;;;;;23.00;22.00;;;;;20.81;67.29;99400.75;4981011;28;45381;-73
2022/08/16 07:23:53;;;;;;;;;27.50;26.00;;;;;20.89;66.34;99387.25;4980808;28;45374;-73
2022/08/16 07:26:22;;;;;;;;;25.00;23.75;;;;;21.09;66.32;99394.59;4980436;28;45498;-76
2022/08/16 07:28:48;;;;;;;;;26.25;24.00;;;;;21.28;67.01;99413.47;4980646;28;45293;-74
2022/08/16 07:31:15;;;;;;;;;26.25;24.25;;;;;21.40;67.04;99426.34;4980328;28;45481;-73
2022/08/16 07:33:41;;;;;;;;;27.50;25.25;;;;;21.36;66.75;99407.00;4980478;28;45579;-75
2022/08/16 07:36:08;;;;;;;;;26.00;22.50;;;;;21.57;66.27;99423.19;4980203;28;45544;-77
2022/08/16 07:38:34;;;;;;;;;26.67;24.33;;;;;21.67;66.12;99407.81;4980058;28;45445;-72
2022/08/16 07:41:00;;;;;;;;;27.50;24.00;;;;;21.72;65.36;99405.84;4980431;28;45519;-78
2022/08/16 07:43:26;;;;;;;;;29.00;25.00;;;;;21.83;65.36;99412.53;4962818;28;45519;-71
2022/08/16 07:45:52;;;;;;;;;30.00;27.75;;;;;21.87;65.34;99405.34;4962346;28;45737;-72
2022/08/16 07:48:18;;;;;;;;;27.50;26.00;;;;;22.02;65.19;99410.13;4962204;28;45287;-74
2022/08/16 07:50:44;;;;;;;;;27.75;27.50;;;;;21.98;64.98;99397.84;4980161;28;45296;-77
2022/08/16 07:53:10;;;;;;;;;30.50;26.75;;;;;21.98;65.03;99412.94;4980231;28;45515;-77
2022/08/16 07:55:35;;;;;;;;;26.00;25.50;;;;;21.98;65.31;99408.47;4979521;28;45239;-73
2022/08/16 07:58:02;;;;;;;;;24.33;22.67;;;;;22.01;64.77;99427.00;4980255;28;45231;-76
2022/08/16 08:00:28;;;;;;;;;29.25;28.25;;;;;21.96;65.54;99423.59;4979869;28;45403;-78
2022/08/16 08:02:54;;;;;;;;;27.50;25.75;;;;;21.87;66.23;99415.13;4979694;28;45237;-77
2022/08/16 08:05:22;;;;;;;;;20.00;20.00;;;;;21.79;65.75;99418.88;4979323;28;45482;-72
2022/08/16 08:07:48;;;;;;;;;32.00;29.00;;;;;21.88;68.05;99460.22;4979583;28;45480;-71
2022/08/16 08:10:14;;;;;;;;;24.33;22.67;;;;;21.72;68.14;99445.72;4979919;28;45464;-75
2022/08/16 08:12:42;;;;;;;;;27.67;25.00;;;;;21.67;67.86;99421.97;4962167;28;45604;-72
2022/08/16 08:15:10;;;;;;;;;31.00;28.75;;;;;21.69;68.69;99437.88;4979351;28;46013;-71
2022/08/16 08:17:38;;;;;;;;;28.00;26.25;;;;;21.56;68.86;99438.25;4994053;28;45456;-73
2022/08/16 08:20:09;;;;;;;;;29.00;26.25;;;;;21.48;70.04;99456.25;4979601;28;45503;-78
2022/08/16 08:22:35;;;;;;;;;28.75;28.25;;;;;21.45;70.21;99459.88;4979682;28;45473;-71
2022/08/16 08:25:02;;;;;;;;;30.75;28.75;;;;;21.43;70.03;99450.22;4979256;28;46110;-73
2022/08/16 08:27:28;;;;;;;;;28.00;27.75;;;;;21.29;70.34;99429.38;4977535;28;45384;-78
2022/08/16 08:29:54;;;;;;;;;25.75;23.75;;;;;21.47;70.68;99461.59;4978820;28;45499;-72
2022/08/16 08:32:20;;;;;;;;;29.75;26.00;;;;;21.40;70.35;99461.75;4978792;28;45341;-73
2022/08/16 08:34:46;;;;;;;;;30.75;28.75;;;;;21.33;71.11;99446.94;4993712;28;47655;-78
2022/08/16 08:37:12;;;;;;;;;27.33;25.67;;;;;21.35;70.70;99446.91;4978606;28;45402;-76
2022/08/16 08:39:38;;;;;;;;;28.00;26.25;;;;;21.17;70.27;99425.31;4977157;28;45501;-77
2022/08/16 08:42:05;;;;;;;;;29.75;28.00;;;;;21.42;71.32;99461.72;4977415;28;45544;-78
2022/08/16 08:44:31;;;;;;;;;28.00;27.50;;;;;21.43;71.06;99471.47;4977712;28;45491;-76
2022/08/16 08:46:59;;;;;;;;;30.00;24.75;;;;;21.45;71.77;99485.59;4978034;28;45472;-78
2022/08/16 08:49:25;;;;;;;;;30.00;28.25;;;;;21.31;71.77;99454.09;4978396;28;45440;-79
2022/08/16 08:51:51;;;;;;;;;30.00;27.00;;;;;20.94;71.50;99382.69;4978475;28;45493;-77
2022/08/16 08:54:16;;;;;;;;;28.00;26.75;;;;;21.38;71.70;99460.06;4977998;28;45870;-73
2022/08/16 08:56:43;;;;;;;;;31.00;29.50;;;;;20.91;71.57;99404.88;4960920;28;45472;-79
2022/08/16 08:59:09;;;;;;;;;31.75;30.25;;;;;21.03;71.70;99424.88;4977571;28;45464;-78
2022/08/16 09:01:36;;;;;;;;;26.00;24.00;;;;;21.42;71.16;99488.28;4978194;28;45436;-73
2022/08/16 09:04:04;;;;;;;;;26.25;26.25;;;;;21.28;71.51;99480.75;4977884;28;46124;-78
2022/08/16 09:06:32;;;;;;;;;34.25;31.00;;;;;21.32;72.72;99493.00;4977846;28;45536;-78
2022/08/16 09:08:59;;;;;;;;;34.25;31.25;;;;;21.20;72.50;99443.78;4977822;28;45464;-77
2022/08/16 09:11:25;;;;;;;;;33.25;29.25;;;;;21.44;71.52;99454.59;4978361;28;45312;-78
2022/08/16 09:13:51;;;;;;;;;34.75;31.50;;;;;21.62;70.95;99463.75;4977768;28;46496;-77
2022/08/16 09:16:20;;;;;;;;;32.00;29.25;;;;;21.71;70.17;99454.63;4978045;28;45195;-74
2022/08/16 09:18:49;;;;;;;;;35.75;32.50;;;;;21.96;69.79;99479.44;4993600;28;45290;-78
2022/08/16 09:21:15;;;;;;;;;30.50;28.50;;;;;21.99;69.14;99455.44;4976900;28;45589;-77
2022/08/16 09:23:40;;;;;;;;;37.25;33.50;;;;;22.14;69.16;99474.44;4977789;28;45385;-75
2022/08/16 09:26:09;;;;;;;;;37.50;33.25;;;;;22.13;67.96;99470.06;4993587;28;45352;-72
2022/08/16 09:28:36;;;;;;;;;34.75;31.75;;;;;21.61;68.41;99388.50;4977134;28;45375;-79
2022/08/16 09:31:04;;;;;;;;;25.67;25.33;;;;;22.12;68.17;99479.78;4959741;28;45562;-78
2022/08/16 09:33:30;;;;;;;;;28.50;26.00;;;;;22.10;68.32;99462.16;4977280;28;45976;-73
2022/08/16 09:35:55;;;;;;;;;33.25;31.25;;;;;22.19;67.64;99460.06;4977405;28;45523;-75
2022/08/16 09:38:23;;;;;;;;;37.00;31.25;;;;;22.22;67.84;99453.75;4992351;28;45567;-77
2022/08/16 09:40:49;;;;;;;;;35.25;31.50;;;;;22.45;68.14;99479.59;4977774;28;45211;-76
2022/08/16 09:43:18;;;;;;;;;27.75;25.75;;;;;22.24;67.73;99370.38;4959831;28;45562;-71
2022/08/16 09:45:45;;;;;;;;;29.50;29.25;;;;;23.42;66.40;99475.97;4976520;28;45589;-74
2022/08/16 09:48:13;;;;;;;;;21.50;21.50;;;;;23.99;64.36;99478.97;4977552;28;45567;-75
2022/08/16 09:50:42;;;;;;;;;25.67;24.67;;;;;24.51;62.78;99468.75;4976589;28;45635;-75
2022/08/16 09:53:12;;;;;;;;;29.33;25.67;;;;;25.52;59.61;99455.13;4991925;28;46970;-77
2022/08/16 09:55:39;;;;;;;;;33.25;25.00;;;;;26.06;57.40;99431.06;4959151;28;45568;-73
2022/08/16 09:58:05;;;;;;;;;23.33;23.33;;;;;26.59;55.98;99448.81;4976975;28;45302;-80
2022/08/16 10:00:31;;;;;;;;;24.67;23.33;;;;;27.45;54.61;99471.84;4977165;28;46096;-73
2022/08/16 10:02:57;;;;;;;;;21.67;21.67;;;;;28.85;50.24;99455.47;4976649;28;45313;-75
2022/08/16 10:05:23;;;;;;;;;19.33;18.00;;;;;29.81;46.47;99467.22;4976759;28;45531;-75
2022/08/16 10:07:51;;;;;;;;;22.33;21.33;;;;;30.14;46.08;99468.56;4976818;28;45668;-75
2022/08/16 10:10:20;;;;;;;;;21.67;21.33;;;;;30.36;42.94;99468.00;4959615;28;45271;-74
2022/08/16 10:15:31;;;;;;;;;19.67;19.33;;;;;29.77;43.67;99392.16;4976744;28;45395;-79
2022/08/16 10:17:57;;;;;;;;;20.33;18.33;;;;;30.23;44.10;99469.78;4976543;28;45312;-76
2022/08/16 10:20:24;;;;;;;;;18.00;17.00;;;;;31.38;41.68;99450.84;4975118;28;45589;-76
2022/08/16 10:22:51;;;;;;;;;21.33;20.33;;;;;31.88;40.64;99440.81;4975952;28;45504;-76
2022/08/16 10:25:17;;;;;;;;;21.00;20.00;;;;;31.89;40.61;99461.47;4976492;28;45408;-76
2022/08/16 10:27:46;;;;;;;;;24.00;21.00;;;;;31.73;39.68;99443.81;4958800;28;45403;-72
2022/08/16 10:30:11;;;;;;;;;21.67;20.00;;;;;31.62;41.23;99456.28;4958921;28;45538;-76
2022/08/16 10:32:37;;;;;;;;;21.00;20.00;;;;;32.42;38.55;99462.84;4975711;28;45491;-77
2022/08/16 10:35:03;;;;;;;;;18.67;18.67;;;;;33.34;38.41;99485.28;4975831;28;45793;-75
2022/08/16 10:37:29;;;;;;;;;20.33;19.67;;;;;32.58;37.20;99436.34;4958927;28;45403;-77
2022/08/16 10:39:55;;;;;;;;;23.67;21.00;;;;;32.56;38.86;99481.59;4957881;28;45465;-74
2022/08/16 10:42:21;;;;;;;;;22.67;20.67;;;;;32.82;38.70;99487.63;4975067;28;45464;-76
2022/08/16 10:44:48;;;;;;;;;20.67;20.00;;;;;33.03;36.98;99471.53;4975027;28;45441;-74
2022/08/16 10:47:14;;;;;;;;;24.00;22.00;;;;;32.73;37.94;99484.78;4957467;28;45485;-74
2022/08/16 10:49:40;;;;;;;;;23.33;22.33;;;;;32.52;38.56;99468.41;4958098;28;45335;-74
2022/08/16 10:52:06;;;;;;;;;29.67;27.67;;;;;33.22;38.10;99451.97;4975639;28;46569;-75
2022/08/16 10:54:32;;;;;;;;;26.00;24.00;;;;;34.05;35.92;99466.75;4958222;28;45206;-76
2022/08/16 10:56:59;;;;;;;;;24.00;23.67;;;;;34.04;36.76;99491.25;4974533;28;45515;-73
2022/08/16 10:59:28;;;;;;;;;27.67;26.67;;;;;33.26;38.17;99479.63;4975937;28;45380;-77
2022/08/16 11:01:54;;;;;;;;;28.00;27.33;;;;;32.56;38.93;99448.28;4975917;28;46419;-77
2022/08/16 11:04:19;;;;;;;;;28.00;27.00;;;;;32.85;37.97;99454.09;4957828;28;45602;-73
2022/08/16 11:06:45;;;;;;;;;24.67;23.00;;;;;33.08;38.13;99477.41;4975512;28;45190;-74
2022/08/16 11:09:11;;;;;;;;;24.33;24.00;;;;;32.66;38.48;99428.50;4976390;28;45468;-77
2022/08/16 11:11:37;;;;;;;;;27.33;26.33;;;;;33.01;38.91;99459.97;4975407;28;45777;-73
2022/08/16 11:14:03;;;;;;;;;23.33;23.00;;;;;32.70;39.52;99494.00;4975698;28;45486;-75
2022/08/16 11:16:28;;;;;;;;;29.33;28.00;;;;;32.28;39.97;99483.69;4975700;28;45475;-76